sensor_id;sensor_type;location;lat;lon;timestamp;pressure;altitude;pressure_sealevel;temperature;humidity
13011;BME280;6786;57.632;11.962;2024-01-30T00:02:08;101935.47;;;18.66;39.85
13011;BME280;6786;57.632;11.962;2024-01-30T00:04:37;101963.84;;;18.81;39.81
13011;BME280;6786;57.632;11.962;2024-01-30T00:07:05;101958.50;;;18.81;39.97
13011;BME280;6786;57.632;11.962;2024-01-30T00:09:33;101957.56;;;18.82;39.74
13011;BME280;6786;57.632;11.962;2024-01-30T00:12:02;101952.19;;;18.82;39.72
13011;BME280;6786;57.632;11.962;2024-01-30T00:14:31;101948.66;;;18.81;39.77
13011;BME280;6786;57.632;11.962;2024-01-30T00:16:59;101951.34;;;18.81;39.72
13011;BME280;6786;57.632;11.962;2024-01-30T00:19:28;101953.91;;;18.83;39.82
13011;BME280;6786;57.632;11.962;2024-01-30T00:21:55;101953.91;;;18.83;39.81
13011;BME280;6786;57.632;11.962;2024-01-30T00:24:23;101949.41;;;18.83;39.80
13011;BME280;6786;57.632;11.962;2024-01-30T00:26:52;101934.38;;;18.81;39.69
13011;BME280;6786;57.632;11.962;2024-01-30T00:29:20;101937.84;;;18.83;39.81
13011;BME280;6786;57.632;11.962;2024-01-30T00:31:51;101936.13;;;18.82;39.75
13011;BME280;6786;57.632;11.962;2024-01-30T00:34:19;101926.56;;;18.78;39.76
13011;BME280;6786;57.632;11.962;2024-01-30T00:36:48;101921.75;;;18.83;39.73
13011;BME280;6786;57.632;11.962;2024-01-30T00:39:16;101932.47;;;18.83;39.85
13011;BME280;6786;57.632;11.962;2024-01-30T00:41:46;101878.00;;;18.45;39.72
13011;BME280;6786;57.632;11.962;2024-01-30T00:44:14;101937.84;;;18.83;39.71
13011;BME280;6786;57.632;11.962;2024-01-30T00:46:42;101942.44;;;18.81;39.74
13011;BME280;6786;57.632;11.962;2024-01-30T00:49:12;101943.19;;;18.83;39.67
13011;BME280;6786;57.632;11.962;2024-01-30T00:51:40;101937.84;;;18.83;39.72
13011;BME280;6786;57.632;11.962;2024-01-30T00:54:09;101930.78;;;18.82;39.67
13011;BME280;6786;57.632;11.962;2024-01-30T00:56:37;101928.81;;;18.84;39.66
13011;BME280;6786;57.632;11.962;2024-01-30T00:59:05;101925.22;;;18.85;39.79
13011;BME280;6786;57.632;11.962;2024-01-30T01:01:33;101925.22;;;18.85;39.74
13011;BME280;6786;57.632;11.962;2024-01-30T01:04:02;101914.69;;;18.82;39.72
13011;BME280;6786;57.632;11.962;2024-01-30T01:06:31;101928.09;;;18.82;39.65
13011;BME280;6786;57.632;11.962;2024-01-30T01:09:00;101929.91;;;18.81;39.69
13011;BME280;6786;57.632;11.962;2024-01-30T01:11:30;101923.69;;;18.81;39.63
13011;BME280;6786;57.632;11.962;2024-01-30T01:13:59;101924.88;;;18.77;39.84
13011;BME280;6786;57.632;11.962;2024-01-30T01:16:27;101925.63;;;18.79;39.83
13011;BME280;6786;57.632;11.962;2024-01-30T01:18:55;101867.69;;;18.39;39.89
13011;BME280;6786;57.632;11.962;2024-01-30T01:21:24;101943.41;;;18.80;39.81
13011;BME280;6786;57.632;11.962;2024-01-30T01:23:54;101940.63;;;18.81;39.73
13011;BME280;6786;57.632;11.962;2024-01-30T01:26:23;101945.09;;;18.81;39.77
13011;BME280;6786;57.632;11.962;2024-01-30T01:28:51;101943.41;;;18.80;39.77
13011;BME280;6786;57.632;11.962;2024-01-30T01:31:19;101946.84;;;18.82;39.83
13011;BME280;6786;57.632;11.962;2024-01-30T01:33:51;101946.84;;;18.82;39.83
13011;BME280;6786;57.632;11.962;2024-01-30T01:36:20;101954.88;;;18.82;39.83
13011;BME280;6786;57.632;11.962;2024-01-30T01:38:48;101952.19;;;18.82;39.69
13011;BME280;6786;57.632;11.962;2024-01-30T01:41:17;101947.78;;;18.81;39.80
13011;BME280;6786;57.632;11.962;2024-01-30T01:43:46;101940.72;;;18.80;39.83
13011;BME280;6786;57.632;11.962;2024-01-30T01:46:14;101938.03;;;18.80;39.76
13011;BME280;6786;57.632;11.962;2024-01-30T01:48:43;101932.69;;;18.80;39.82
13011;BME280;6786;57.632;11.962;2024-01-30T01:51:12;101936.34;;;18.79;39.76
13011;BME280;6786;57.632;11.962;2024-01-30T01:53:41;101936.13;;;18.82;39.81
13011;BME280;6786;57.632;11.962;2024-01-30T01:56:09;101934.38;;;18.81;39.79
13011;BME280;6786;57.632;11.962;2024-01-30T01:58:40;101938.91;;;18.80;39.74
13011;BME280;6786;57.632;11.962;2024-01-30T02:01:09;101934.38;;;18.81;39.68
13011;BME280;6786;57.632;11.962;2024-01-30T02:03:38;101919.28;;;18.80;39.80
13011;BME280;6786;57.632;11.962;2024-01-30T02:06:06;101921.97;;;18.80;39.73
13011;BME280;6786;57.632;11.962;2024-01-30T02:08:36;101843.22;;;18.31;39.86
13011;BME280;6786;57.632;11.962;2024-01-30T02:11:05;101918.31;;;18.81;39.69
13011;BME280;6786;57.632;11.962;2024-01-30T02:13:33;101907.59;;;18.81;39.76
13011;BME280;6786;57.632;11.962;2024-01-30T02:16:03;101910.38;;;18.79;39.86
13011;BME280;6786;57.632;11.962;2024-01-30T02:18:32;101908.69;;;18.78;39.80
13011;BME280;6786;57.632;11.962;2024-01-30T02:21:04;101913.19;;;18.78;39.90
13011;BME280;6786;57.632;11.962;2024-01-30T02:23:33;101904.72;;;18.71;39.80
13011;BME280;6786;57.632;11.962;2024-01-30T02:26:01;101912.75;;;18.71;39.88
13011;BME280;6786;57.632;11.962;2024-01-30T02:28:30;101928.31;;;18.79;39.86
13011;BME280;6786;57.632;11.962;2024-01-30T02:30:58;101934.59;;;18.78;39.73
13011;BME280;6786;57.632;11.962;2024-01-30T02:33:26;101921.31;;;18.76;39.88
13011;BME280;6786;57.632;11.962;2024-01-30T02:35:54;101916.81;;;18.77;39.78
13011;BME280;6786;57.632;11.962;2024-01-30T02:38:24;101916.63;;;18.80;39.87
13011;BME280;6786;57.632;11.962;2024-01-30T02:40:53;101914.03;;;18.78;39.82
13011;BME280;6786;57.632;11.962;2024-01-30T02:43:22;101897.31;;;18.75;39.75
13011;BME280;6786;57.632;11.962;2024-01-30T02:45:50;101916.63;;;18.80;39.73
13011;BME280;6786;57.632;11.962;2024-01-30T02:48:19;101921.09;;;18.79;39.82
13011;BME280;6786;57.632;11.962;2024-01-30T02:50:47;101907.81;;;18.78;39.82
13011;BME280;6786;57.632;11.962;2024-01-30T02:53:15;101904.19;;;18.79;39.81
13011;BME280;6786;57.632;11.962;2024-01-30T02:55:45;101884.69;;;18.77;39.72
13011;BME280;6786;57.632;11.962;2024-01-30T02:58:13;101886.59;;;18.75;39.83
13011;BME280;6786;57.632;11.962;2024-01-30T03:00:42;101886.38;;;18.78;39.89
13011;BME280;6786;57.632;11.962;2024-01-30T03:03:10;101873.22;;;18.75;39.85
13011;BME280;6786;57.632;11.962;2024-01-30T03:05:39;101872.28;;;18.76;39.82
13011;BME280;6786;57.632;11.962;2024-01-30T03:08:07;101879.53;;;18.74;39.86
13011;BME280;6786;57.632;11.962;2024-01-30T03:10:35;101891.75;;;18.78;39.92
13011;BME280;6786;57.632;11.962;2024-01-30T03:13:05;101886.59;;;18.75;39.79
13011;BME280;6786;57.632;11.962;2024-01-30T03:15:33;101892.72;;;18.77;39.92
13011;BME280;6786;57.632;11.962;2024-01-30T03:18:02;101885.75;;;18.74;40.02
13011;BME280;6786;57.632;11.962;2024-01-30T03:20:30;101888.13;;;18.79;40.17
13011;BME280;6786;57.632;11.962;2024-01-30T03:23:00;101893.47;;;18.79;39.89
13011;BME280;6786;57.632;11.962;2024-01-30T03:25:29;101882.78;;;18.79;39.82
13011;BME280;6786;57.632;11.962;2024-01-30T03:27:57;101871.09;;;18.80;39.92
13011;BME280;6786;57.632;11.962;2024-01-30T03:30:27;101865.72;;;18.80;39.75
13011;BME280;6786;57.632;11.962;2024-01-30T03:32:55;101864.75;;;18.81;39.77
13011;BME280;6786;57.632;11.962;2024-01-30T03:35:24;101870.09;;;18.81;39.77
13011;BME280;6786;57.632;11.962;2024-01-30T03:37:52;101863.25;;;18.77;39.82
13011;BME280;6786;57.632;11.962;2024-01-30T03:40:20;101865.94;;;18.77;39.77
13011;BME280;6786;57.632;11.962;2024-01-30T03:42:49;101812.88;;;18.44;39.77
13011;BME280;6786;57.632;11.962;2024-01-30T03:45:17;101863.06;;;18.80;39.74
13011;BME280;6786;57.632;11.962;2024-01-30T03:47:47;101875.47;;;18.81;39.75
13011;BME280;6786;57.632;11.962;2024-01-30T03:50:16;101873.75;;;18.80;39.82
13011;BME280;6786;57.632;11.962;2024-01-30T03:52:44;101870.31;;;18.78;39.86
13011;BME280;6786;57.632;11.962;2024-01-30T03:55:12;101874.63;;;18.80;39.85
13011;BME280;6786;57.632;11.962;2024-01-30T03:57:41;101876.84;;;18.74;39.87
13011;BME280;6786;57.632;11.962;2024-01-30T04:00:10;101884.47;;;18.80;39.87
13011;BME280;6786;57.632;11.962;2024-01-30T04:02:38;101879.13;;;18.80;39.88
13011;BME280;6786;57.632;11.962;2024-01-30T04:05:09;101876.44;;;18.80;39.90
13011;BME280;6786;57.632;11.962;2024-01-30T04:07:37;101873.75;;;18.80;39.78
13011;BME280;6786;57.632;11.962;2024-01-30T04:10:06;101871.19;;;18.78;39.80
13011;BME280;6786;57.632;11.962;2024-01-30T04:12:35;101880.81;;;18.81;39.87
13011;BME280;6786;57.632;11.962;2024-01-30T04:15:04;101878.16;;;18.81;39.85
13011;BME280;6786;57.632;11.962;2024-01-30T04:17:32;101871.84;;;18.82;39.79
13011;BME280;6786;57.632;11.962;2024-01-30T04:20:01;101796.16;;;18.41;39.76
13011;BME280;6786;57.632;11.962;2024-01-30T04:22:31;101867.44;;;18.81;39.87
13011;BME280;6786;57.632;11.962;2024-01-30T04:24:59;101877.41;;;18.79;39.75
13011;BME280;6786;57.632;11.962;2024-01-30T04:27:27;101881.78;;;18.80;39.75
13011;BME280;6786;57.632;11.962;2024-01-30T04:29:56;101886.19;;;18.81;39.72
13011;BME280;6786;57.632;11.962;2024-01-30T04:32:24;101884.47;;;18.80;39.82
13011;BME280;6786;57.632;11.962;2024-01-30T04:34:52;101892.50;;;18.80;39.79
13011;BME280;6786;57.632;11.962;2024-01-30T04:37:20;101895.19;;;18.80;39.90
13011;BME280;6786;57.632;11.962;2024-01-30T04:39:50;101889.84;;;18.80;39.85
13011;BME280;6786;57.632;11.962;2024-01-30T04:42:18;101881.78;;;18.80;39.81
13011;BME280;6786;57.632;11.962;2024-01-30T04:44:47;101859.59;;;18.78;39.85
13011;BME280;6786;57.632;11.962;2024-01-30T04:47:15;101864.75;;;18.81;39.89
13011;BME280;6786;57.632;11.962;2024-01-30T04:49:44;101857.69;;;18.80;39.88
13011;BME280;6786;57.632;11.962;2024-01-30T04:52:12;101794.25;;;18.43;39.86
13011;BME280;6786;57.632;11.962;2024-01-30T04:54:41;101855.97;;;18.79;39.85
13011;BME280;6786;57.632;11.962;2024-01-30T04:57:11;101843.53;;;18.78;39.91
13011;BME280;6786;57.632;11.962;2024-01-30T04:59:39;101840.13;;;18.76;39.98
13011;BME280;6786;57.632;11.962;2024-01-30T05:02:08;101849.09;;;18.75;39.94
13011;BME280;6786;57.632;11.962;2024-01-30T05:04:36;101846.63;;;18.72;39.87
13011;BME280;6786;57.632;11.962;2024-01-30T05:07:04;101843.53;;;18.78;39.87
13011;BME280;6786;57.632;11.962;2024-01-30T05:09:33;101852.53;;;18.77;39.91
13011;BME280;6786;57.632;11.962;2024-01-30T05:12:01;101854.25;;;18.78;39.82
13011;BME280;6786;57.632;11.962;2024-01-30T05:14:31;101852.53;;;18.77;39.89
13011;BME280;6786;57.632;11.962;2024-01-30T05:16:59;101852.53;;;18.77;39.96
13011;BME280;6786;57.632;11.962;2024-01-30T05:19:27;101850.84;;;18.76;40.03
13011;BME280;6786;57.632;11.962;2024-01-30T05:21:55;101847.19;;;18.77;39.91
13011;BME280;6786;57.632;11.962;2024-01-30T05:24:24;101859.59;;;18.78;39.88
13011;BME280;6786;57.632;11.962;2024-01-30T05:26:53;101848.91;;;18.78;39.95
13011;BME280;6786;57.632;11.962;2024-01-30T05:29:22;101843.53;;;18.78;39.86
13011;BME280;6786;57.632;11.962;2024-01-30T05:31:51;101764.63;;;18.32;39.86
13011;BME280;6786;57.632;11.962;2024-01-30T05:34:19;101836.47;;;18.77;39.91
13011;BME280;6786;57.632;11.962;2024-01-30T05:36:48;101838.19;;;18.78;39.75
13011;BME280;6786;57.632;11.962;2024-01-30T05:39:16;101848.91;;;18.78;39.85
13011;BME280;6786;57.632;11.962;2024-01-30T05:41:44;101844.63;;;18.75;39.89
13011;BME280;6786;57.632;11.962;2024-01-30T05:44:12;101841.06;;;18.75;39.93
13011;BME280;6786;57.632;11.962;2024-01-30T05:46:40;101838.19;;;18.78;39.84
13011;BME280;6786;57.632;11.962;2024-01-30T05:49:10;101833.03;;;18.75;39.93
13011;BME280;6786;57.632;11.962;2024-01-30T05:51:38;101828.34;;;18.78;39.81
13011;BME280;6786;57.632;11.962;2024-01-30T05:54:07;101755.47;;;18.36;39.83
13011;BME280;6786;57.632;11.962;2024-01-30T05:56:35;101824.28;;;18.73;39.80
13011;BME280;6786;57.632;11.962;2024-01-30T05:59:03;101824.88;;;18.76;39.82
13011;BME280;6786;57.632;11.962;2024-01-30T06:01:31;101816.97;;;18.75;39.95
13011;BME280;6786;57.632;11.962;2024-01-30T06:04:00;101815.25;;;18.74;39.92
13011;BME280;6786;57.632;11.962;2024-01-30T06:06:31;101810.88;;;18.73;39.95
13011;BME280;6786;57.632;11.962;2024-01-30T06:08:59;101818.91;;;18.73;39.95
13011;BME280;6786;57.632;11.962;2024-01-30T06:11:27;101811.59;;;18.75;40.01
13011;BME280;6786;57.632;11.962;2024-01-30T06:13:55;101818.69;;;18.76;39.91
13011;BME280;6786;57.632;11.962;2024-01-30T06:16:23;101816.97;;;18.75;39.75
13011;BME280;6786;57.632;11.962;2024-01-30T06:18:56;101822.31;;;18.75;39.82
13011;BME280;6786;57.632;11.962;2024-01-30T06:21:25;101833.03;;;18.75;39.82
13011;BME280;6786;57.632;11.962;2024-01-30T06:23:55;101827.69;;;18.75;39.83
13011;BME280;6786;57.632;11.962;2024-01-30T06:26:23;101828.53;;;18.75;39.87
13011;BME280;6786;57.632;11.962;2024-01-30T06:28:51;101733.59;;;18.17;39.58
13011;BME280;6786;57.632;11.962;2024-01-30T06:31:19;101822.31;;;18.75;39.87
13011;BME280;6786;57.632;11.962;2024-01-30T06:33:48;101801.44;;;18.67;39.80
13011;BME280;6786;57.632;11.962;2024-01-30T06:36:17;101813.34;;;18.76;39.89
13011;BME280;6786;57.632;11.962;2024-01-30T06:38:45;101740.94;;;18.40;39.98
13011;BME280;6786;57.632;11.962;2024-01-30T06:41:14;101798.22;;;18.75;39.87
13011;BME280;6786;57.632;11.962;2024-01-30T06:43:43;101804.44;;;18.75;39.99
13011;BME280;6786;57.632;11.962;2024-01-30T06:46:12;101800.91;;;18.75;40.00
13011;BME280;6786;57.632;11.962;2024-01-30T06:48:40;101798.22;;;18.75;39.91
13011;BME280;6786;57.632;11.962;2024-01-30T06:51:11;101792.13;;;18.73;39.93
13011;BME280;6786;57.632;11.962;2024-01-30T06:53:43;101788.47;;;18.74;39.68
13011;BME280;6786;57.632;11.962;2024-01-30T06:56:12;101788.47;;;18.74;39.99
13011;BME280;6786;57.632;11.962;2024-01-30T06:58:41;101772.41;;;18.74;39.85
13011;BME280;6786;57.632;11.962;2024-01-30T07:01:10;101774.13;;;18.75;39.88
13011;BME280;6786;57.632;11.962;2024-01-30T07:03:38;101771.44;;;18.75;39.96
13011;BME280;6786;57.632;11.962;2024-01-30T07:06:07;101752.91;;;18.72;39.96
13011;BME280;6786;57.632;11.962;2024-01-30T07:08:35;101751.97;;;18.73;39.89
13011;BME280;6786;57.632;11.962;2024-01-30T07:11:04;101755.38;;;18.75;39.91
13011;BME280;6786;57.632;11.962;2024-01-30T07:13:33;101756.34;;;18.74;39.84
13011;BME280;6786;57.632;11.962;2024-01-30T07:16:03;101758.03;;;18.75;39.90
13011;BME280;6786;57.632;11.962;2024-01-30T07:18:32;101770.50;;;18.76;39.81
13011;BME280;6786;57.632;11.962;2024-01-30T07:21:00;101775.84;;;18.76;39.88
13011;BME280;6786;57.632;11.962;2024-01-30T07:23:28;101776.06;;;18.73;39.84
13011;BME280;6786;57.632;11.962;2024-01-30T07:25:57;101774.13;;;18.75;39.95
13011;BME280;6786;57.632;11.962;2024-01-30T07:28:25;101693.34;;;18.31;40.02
13011;BME280;6786;57.632;11.962;2024-01-30T07:30:53;101774.13;;;18.75;40.00
13011;BME280;6786;57.632;11.962;2024-01-30T07:33:23;101774.13;;;18.75;39.98
13011;BME280;6786;57.632;11.962;2024-01-30T07:35:52;101768.75;;;18.75;39.82
13011;BME280;6786;57.632;11.962;2024-01-30T07:38:20;101767.16;;;18.72;40.03
13011;BME280;6786;57.632;11.962;2024-01-30T07:40:49;101753.78;;;18.72;39.95
13011;BME280;6786;57.632;11.962;2024-01-30T07:43:17;101759.13;;;18.72;39.94
13011;BME280;6786;57.632;11.962;2024-01-30T07:45:47;101641.53;;;18.07;40.11
13011;BME280;6786;57.632;11.962;2024-01-30T07:48:15;101755.69;;;18.70;39.90
13011;BME280;6786;57.632;11.962;2024-01-30T07:50:45;101753.78;;;18.72;39.99
13011;BME280;6786;57.632;11.962;2024-01-30T07:53:13;101756.34;;;18.74;39.97
13011;BME280;6786;57.632;11.962;2024-01-30T07:55:42;101742.94;;;18.74;39.82
13011;BME280;6786;57.632;11.962;2024-01-30T07:58:13;101736.84;;;18.72;39.93
13011;BME280;6786;57.632;11.962;2024-01-30T08:00:41;101722.50;;;18.73;40.02
13011;BME280;6786;57.632;11.962;2024-01-30T08:03:10;101718.84;;;18.74;40.04
13011;BME280;6786;57.632;11.962;2024-01-30T08:05:38;101706.44;;;18.73;39.91
13011;BME280;6786;57.632;11.962;2024-01-30T08:08:08;101685.84;;;18.73;39.90
13011;BME280;6786;57.632;11.962;2024-01-30T08:10:36;101681.34;;;18.74;39.95
13011;BME280;6786;57.632;11.962;2024-01-30T08:13:05;101670.66;;;18.74;39.89
13011;BME280;6786;57.632;11.962;2024-01-30T08:15:35;101685.84;;;18.73;39.94
13011;BME280;6786;57.632;11.962;2024-01-30T08:18:03;101694.75;;;18.74;39.96
13011;BME280;6786;57.632;11.962;2024-01-30T08:20:33;101697.41;;;18.74;39.88
13011;BME280;6786;57.632;11.962;2024-01-30T08:23:02;101696.56;;;18.73;39.90
13011;BME280;6786;57.632;11.962;2024-01-30T08:25:32;101692.06;;;18.74;40.03
13011;BME280;6786;57.632;11.962;2024-01-30T08:28:00;101677.69;;;18.75;39.96
13011;BME280;6786;57.632;11.962;2024-01-30T08:30:28;101677.69;;;18.75;40.01
13011;BME280;6786;57.632;11.962;2024-01-30T08:32:57;101692.06;;;18.74;39.91
13011;BME280;6786;57.632;11.962;2024-01-30T08:35:25;101686.06;;;18.70;40.00
13011;BME280;6786;57.632;11.962;2024-01-30T08:37:54;101690.38;;;18.73;39.78
13011;BME280;6786;57.632;11.962;2024-01-30T08:40:22;101704.69;;;18.72;39.90
13011;BME280;6786;57.632;11.962;2024-01-30T08:42:52;101708.34;;;18.71;39.98
13011;BME280;6786;57.632;11.962;2024-01-30T08:45:20;101703.00;;;18.71;39.97
13011;BME280;6786;57.632;11.962;2024-01-30T08:47:48;101716.38;;;18.71;40.04
13011;BME280;6786;57.632;11.962;2024-01-30T08:50:17;101680.75;;;18.58;39.95
13011;BME280;6786;57.632;11.962;2024-01-30T08:52:45;101704.69;;;18.72;40.03
13011;BME280;6786;57.632;11.962;2024-01-30T08:55:16;101708.13;;;18.74;39.96
13011;BME280;6786;57.632;11.962;2024-01-30T08:57:44;101622.72;;;18.21;39.99
13011;BME280;6786;57.632;11.962;2024-01-30T09:00:15;101702.78;;;18.74;39.88
13011;BME280;6786;57.632;11.962;2024-01-30T09:02:43;101697.41;;;18.74;39.85
13011;BME280;6786;57.632;11.962;2024-01-30T09:05:12;101605.69;;;18.22;39.92
13011;BME280;6786;57.632;11.962;2024-01-30T09:07:40;101662.22;;;18.55;40.04
13011;BME280;6786;57.632;11.962;2024-01-30T09:10:08;101692.28;;;18.71;40.04
13011;BME280;6786;57.632;11.962;2024-01-30T09:12:40;101688.75;;;18.70;40.08
13011;BME280;6786;57.632;11.962;2024-01-30T09:15:09;101684.25;;;18.71;39.99
13011;BME280;6786;57.632;11.962;2024-01-30T09:17:39;101678.13;;;18.69;40.02
13011;BME280;6786;57.632;11.962;2024-01-30T09:20:08;101681.56;;;18.71;40.05
13011;BME280;6786;57.632;11.962;2024-01-30T09:22:38;101677.91;;;18.72;40.01
13011;BME280;6786;57.632;11.962;2024-01-30T09:25:06;101674.41;;;18.71;39.98
13011;BME280;6786;57.632;11.962;2024-01-30T09:27:35;101672.78;;;18.69;40.10
13011;BME280;6786;57.632;11.962;2024-01-30T09:30:03;101674.50;;;18.70;40.10
13011;BME280;6786;57.632;11.962;2024-01-30T09:32:32;101673.53;;;18.71;40.07
13011;BME280;6786;57.632;11.962;2024-01-30T09:35:02;101668.19;;;18.71;39.96
13011;BME280;6786;57.632;11.962;2024-01-30T09:37:30;101657.69;;;18.68;40.07
13011;BME280;6786;57.632;11.962;2024-01-30T09:39:58;101656.72;;;18.69;40.13
13011;BME280;6786;57.632;11.962;2024-01-30T09:42:33;101653.09;;;18.70;40.13
13011;BME280;6786;57.632;11.962;2024-01-30T09:45:02;101661.13;;;18.70;40.08
13011;BME280;6786;57.632;11.962;2024-01-30T09:47:31;101663.81;;;18.70;39.98
13011;BME280;6786;57.632;11.962;2024-01-30T09:50:02;101662.06;;;18.69;40.11
13011;BME280;6786;57.632;11.962;2024-01-30T09:52:32;101676.22;;;18.71;39.97
13011;BME280;6786;57.632;11.962;2024-01-30T09:55:01;101603.00;;;18.34;40.09
13011;BME280;6786;57.632;11.962;2024-01-30T09:57:29;101654.78;;;18.71;40.06
13011;BME280;6786;57.632;11.962;2024-01-30T09:59:58;101654.78;;;18.71;39.96
13011;BME280;6786;57.632;11.962;2024-01-30T10:02:26;101655.66;;;18.71;40.09
13011;BME280;6786;57.632;11.962;2024-01-30T10:04:54;101661.03;;;18.71;40.05
13011;BME280;6786;57.632;11.962;2024-01-30T10:07:24;101674.50;;;18.70;40.13
13011;BME280;6786;57.632;11.962;2024-01-30T10:09:53;101674.50;;;18.70;40.15
13011;BME280;6786;57.632;11.962;2024-01-30T10:12:22;101665.84;;;18.66;40.16
13011;BME280;6786;57.632;11.962;2024-01-30T10:14:50;101670.00;;;18.70;40.09
13011;BME280;6786;57.632;11.962;2024-01-30T10:17:18;101666.59;;;18.68;40.19
13011;BME280;6786;57.632;11.962;2024-01-30T10:19:59;101662.06;;;18.69;40.04
13011;BME280;6786;57.632;11.962;2024-01-30T10:22:30;101650.41;;;18.70;40.11
13011;BME280;6786;57.632;11.962;2024-01-30T10:24:59;101651.34;;;18.69;40.25
13011;BME280;6786;57.632;11.962;2024-01-30T10:27:32;101650.84;;;18.64;40.15
13011;BME280;6786;57.632;11.962;2024-01-30T10:30:00;101680.81;;;18.69;40.07
13011;BME280;6786;57.632;11.962;2024-01-30T10:32:31;101677.19;;;18.70;40.13
13011;BME280;6786;57.632;11.962;2024-01-30T10:34:59;101682.56;;;18.70;40.15
13011;BME280;6786;57.632;11.962;2024-01-30T10:37:30;101663.69;;;18.71;40.17
13011;BME280;6786;57.632;11.962;2024-01-30T10:40:02;101672.56;;;18.72;40.05
13011;BME280;6786;57.632;11.962;2024-01-30T10:42:33;101654.28;;;18.66;39.96
13011;BME280;6786;57.632;11.962;2024-01-30T10:45:07;101677.91;;;18.72;40.13
13011;BME280;6786;57.632;11.962;2024-01-30T10:47:36;101668.94;;;18.73;40.26
13011;BME280;6786;57.632;11.962;2024-01-30T10:50:05;101660.16;;;18.71;40.22
13011;BME280;6786;57.632;11.962;2024-01-30T10:52:36;101660.16;;;18.71;40.21
13011;BME280;6786;57.632;11.962;2024-01-30T10:55:05;101560.63;;;18.16;40.20
13011;BME280;6786;57.632;11.962;2024-01-30T10:57:34;101640.91;;;18.66;40.05
13011;BME280;6786;57.632;11.962;2024-01-30T11:00:04;101627.03;;;18.72;40.22
13011;BME280;6786;57.632;11.962;2024-01-30T11:02:38;101604.34;;;18.65;40.05
13011;BME280;6786;57.632;11.962;2024-01-30T11:05:08;101617.31;;;18.71;40.14
13011;BME280;6786;57.632;11.962;2024-01-30T11:07:39;101551.19;;;18.23;39.96
13011;BME280;6786;57.632;11.962;2024-01-30T11:10:08;101615.38;;;18.73;40.13
13011;BME280;6786;57.632;11.962;2024-01-30T11:12:40;101609.16;;;18.72;40.30
13011;BME280;6786;57.632;11.962;2024-01-30T11:15:12;101596.63;;;18.73;40.04
13011;BME280;6786;57.632;11.962;2024-01-30T11:17:47;101592.22;;;18.72;40.11
13011;BME280;6786;57.632;11.962;2024-01-30T11:20:20;101581.47;;;18.61;40.12
13011;BME280;6786;57.632;11.962;2024-01-30T11:22:51;101599.53;;;18.70;40.08
13011;BME280;6786;57.632;11.962;2024-01-30T11:25:21;101578.56;;;18.64;40.15
13011;BME280;6786;57.632;11.962;2024-01-30T11:27:51;101579.81;;;18.71;40.14
13011;BME280;6786;57.632;11.962;2024-01-30T11:30:24;101566.44;;;18.71;40.16
13011;BME280;6786;57.632;11.962;2024-01-30T11:33:00;101481.34;;;18.15;40.13
13011;BME280;6786;57.632;11.962;2024-01-30T11:35:31;101574.47;;;18.71;40.14
13011;BME280;6786;57.632;11.962;2024-01-30T11:38:02;101563.75;;;18.71;40.20
13011;BME280;6786;57.632;11.962;2024-01-30T11:40:31;101562.06;;;18.70;40.07
13011;BME280;6786;57.632;11.962;2024-01-30T11:43:02;101555.59;;;18.72;40.28
13011;BME280;6786;57.632;11.962;2024-01-30T11:45:31;101560.09;;;18.72;40.11
13011;BME280;6786;57.632;11.962;2024-01-30T11:48:00;101554.84;;;18.70;40.25
13011;BME280;6786;57.632;11.962;2024-01-30T11:50:31;101556.47;;;18.73;40.15
13011;BME280;6786;57.632;11.962;2024-01-30T11:53:01;101559.88;;;18.75;40.14
13011;BME280;6786;57.632;11.962;2024-01-30T11:55:29;101556.47;;;18.73;40.02
13011;BME280;6786;57.632;11.962;2024-01-30T11:58:01;101556.56;;;18.71;40.19
13011;BME280;6786;57.632;11.962;2024-01-30T12:00:29;101555.50;;;18.74;40.04
13011;BME280;6786;57.632;11.962;2024-01-30T12:03:00;101549.38;;;18.72;40.16
13011;BME280;6786;57.632;11.962;2024-01-30T12:05:30;101547.47;;;18.74;40.11
13011;BME280;6786;57.632;11.962;2024-01-30T12:07:59;101548.44;;;18.73;40.12
13011;BME280;6786;57.632;11.962;2024-01-30T12:10:30;101527.84;;;18.73;40.13
13011;BME280;6786;57.632;11.962;2024-01-30T12:12:58;101526.91;;;18.74;40.09
13011;BME280;6786;57.632;11.962;2024-01-30T12:15:27;101526.03;;;18.74;39.91
13011;BME280;6786;57.632;11.962;2024-01-30T12:18:04;101518.97;;;18.73;40.27
13011;BME280;6786;57.632;11.962;2024-01-30T12:20:33;101507.84;;;18.66;40.23
13011;BME280;6786;57.632;11.962;2024-01-30T12:23:02;101508.25;;;18.73;40.21
13011;BME280;6786;57.632;11.962;2024-01-30T12:25:31;101500.22;;;18.73;40.20
13011;BME280;6786;57.632;11.962;2024-01-30T12:28:00;101499.72;;;18.68;40.20
13011;BME280;6786;57.632;11.962;2024-01-30T12:30:29;101506.53;;;18.72;40.27
13011;BME280;6786;57.632;11.962;2024-01-30T12:32:57;101500.22;;;18.73;40.17
13011;BME280;6786;57.632;11.962;2024-01-30T12:35:26;101495.00;;;18.71;40.27
13011;BME280;6786;57.632;11.962;2024-01-30T12:37:58;101493.16;;;18.72;40.24
13011;BME280;6786;57.632;11.962;2024-01-30T12:40:27;101501.19;;;18.72;40.08
13011;BME280;6786;57.632;11.962;2024-01-30T12:42:57;101483.66;;;18.68;40.33
13011;BME280;6786;57.632;11.962;2024-01-30T12:45:26;101485.09;;;18.72;40.28
13011;BME280;6786;57.632;11.962;2024-01-30T12:47:54;101481.72;;;18.70;40.20
13011;BME280;6786;57.632;11.962;2024-01-30T12:50:22;101479.75;;;18.72;40.22
13011;BME280;6786;57.632;11.962;2024-01-30T12:52:51;101481.47;;;18.73;40.34
13011;BME280;6786;57.632;11.962;2024-01-30T12:55:19;101462.75;;;18.73;40.16
13011;BME280;6786;57.632;11.962;2024-01-30T12:57:47;101447.84;;;18.69;40.23
13011;BME280;6786;57.632;11.962;2024-01-30T13:00:17;101460.06;;;18.73;40.19